Etihad Airways Virtual Airport Information Service

Karachi Jinnah International Airport

ICAO: OPKC Country: Pakistan
Latitude: 24.9065 Longitude: 67.1608
Latest Arrival : SVA704 (OEJN-OPKC) Latest Departure : SVA705 (OPKC-OEJN)


WX CaptureLIVE
Data provided by noaa.gov | Recorded at 17:09:02

METAR : OPKC 081625Z 00000KT 7000 FEW018 SCT025 OVC090 29/27 Q0998 NOSIG

TAF : OPKC 080930Z 0812/0918 07015G25KT 5000 DZ SCT020 BKN030 FM082000 26010KT 5000 DZ SCT020 BKN030 FM090500 24010G20KT 6000 FEW020 SCT030


Runway Data for OPKC
Data provided by openaviationdata.com

Runway ID Mag Var Hdg Length Elevation Surface ILS Freq ILS Id ILS Slope

Karachi Jinnah International Airport, Pakistan
Use only for reference purposes